createdAt,value
2023-01-08T00:01:15.792Z,4.50
2023-01-08T00:06:18.322Z,3.35
2023-01-08T00:11:19.773Z,4.20
2023-01-08T00:16:21.357Z,4.07
2023-01-08T00:21:22.983Z,3.38
2023-01-08T00:26:25.139Z,3.10
2023-01-08T00:31:26.616Z,3.10
2023-01-08T00:36:28.149Z,2.90
2023-01-08T00:41:29.697Z,3.42
2023-01-08T00:46:31.194Z,2.83
2023-01-08T00:51:32.725Z,2.75
2023-01-08T00:56:34.181Z,1.98
2023-01-08T01:01:35.787Z,2.15
2023-01-08T01:06:37.797Z,1.70
2023-01-08T01:11:39.276Z,1.70
2023-01-08T01:16:41.823Z,1.65
2023-01-08T01:21:43.417Z,2.30
2023-01-08T01:26:45.428Z,2.00
2023-01-08T01:31:46.934Z,1.75
2023-01-08T01:36:48.462Z,1.52
2023-01-08T01:41:49.949Z,1.73
2023-01-08T01:46:51.489Z,1.42
2023-01-08T01:51:53.907Z,1.35
2023-01-08T01:56:55.742Z,1.42
2023-01-08T02:01:58.075Z,1.55
2023-01-08T02:07:02.108Z,1.70
2023-01-08T02:12:18.003Z,1.40
2023-01-08T02:17:39.843Z,1.70
2023-01-08T02:23:04.541Z,1.15
2023-01-08T02:28:09.442Z,1.08
2023-01-08T02:33:11.833Z,0.82
2023-01-08T02:38:14.661Z,1.08
2023-01-08T02:43:26.523Z,1.02
2023-01-08T02:48:37.932Z,1.13
2023-01-08T02:53:43.947Z,0.80
2023-01-08T02:58:48.047Z,0.80
2023-01-08T03:03:51.432Z,0.70
2023-01-08T03:08:53.794Z,0.75
2023-01-08T03:14:07.377Z,0.60
2023-01-08T03:19:12.357Z,0.70
2023-01-08T03:24:15.443Z,0.60
2023-01-08T03:29:19.158Z,0.68
2023-01-08T03:34:21.599Z,0.50
2023-01-08T03:39:28.535Z,0.52
2023-01-08T03:44:30.112Z,0.68
2023-01-08T03:49:31.881Z,0.80
2023-01-08T03:54:34.295Z,0.45
2023-01-08T03:59:35.771Z,0.30
2023-01-08T04:04:37.356Z,0.60
2023-01-08T04:09:39.007Z,0.43
2023-01-08T04:14:40.558Z,0.52
2023-01-08T04:19:42.037Z,0.57
2023-01-08T04:24:43.538Z,0.50
2023-01-08T04:29:45.009Z,0.80
2023-01-08T04:34:46.477Z,0.70
2023-01-08T04:39:48.005Z,0.60
2023-01-08T04:44:49.474Z,0.63
2023-01-08T04:49:50.923Z,0.40
2023-01-08T04:54:52.472Z,0.50
2023-01-08T04:59:53.912Z,0.47
2023-01-08T05:04:55.514Z,0.35
2023-01-08T05:09:57.363Z,0.45
2023-01-08T05:14:58.871Z,0.40
2023-01-08T05:20:00.472Z,0.57
2023-01-08T05:25:01.953Z,0.75
2023-01-08T05:30:03.581Z,0.55
2023-01-08T05:35:05.233Z,0.77
2023-01-08T05:40:06.891Z,0.70
2023-01-08T05:45:08.659Z,0.75
2023-01-08T05:50:10.294Z,0.52
2023-01-08T05:55:11.866Z,0.55
2023-01-08T06:00:13.837Z,0.65
2023-01-08T06:05:15.449Z,0.65
2023-01-08T06:10:17.211Z,0.90
2023-01-08T06:15:18.834Z,0.80
2023-01-08T06:20:20.354Z,0.73
2023-01-08T06:25:21.896Z,0.93
2023-01-08T06:30:23.406Z,1.23
2023-01-08T06:35:25.422Z,0.75
2023-01-08T06:40:26.945Z,1.10
2023-01-08T06:45:28.438Z,0.85
2023-01-08T06:50:30.346Z,1.02
2023-01-08T06:55:31.832Z,1.35
2023-01-08T07:00:33.311Z,1.20
2023-01-08T07:05:35.580Z,1.33
2023-01-08T07:10:37.394Z,1.23
2023-01-08T07:15:42.412Z,1.77
2023-01-08T07:20:43.907Z,1.33
2023-01-08T07:25:45.410Z,1.33
2023-01-08T07:30:46.962Z,1.52
2023-01-08T07:35:55.291Z,1.60
2023-01-08T07:40:59.808Z,1.58
2023-01-08T07:46:04.719Z,1.38
2023-01-08T07:51:07.237Z,1.48
2023-01-08T07:56:10.620Z,1.85
2023-01-08T08:01:12.408Z,1.90
2023-01-08T08:06:14.084Z,1.98
2023-01-08T08:11:15.683Z,1.75
2023-01-08T08:16:17.304Z,1.67
2023-01-08T08:21:18.867Z,2.28
2023-01-08T08:26:21.890Z,2.53
2023-01-08T08:31:23.537Z,2.10
2023-01-08T08:36:29.169Z,2.13
2023-01-08T08:41:30.764Z,1.45
2023-01-08T08:46:32.380Z,0.88
2023-01-08T08:51:33.879Z,1.35
2023-01-08T08:56:35.348Z,1.42
2023-01-08T09:01:36.928Z,1.13
2023-01-08T09:06:38.690Z,1.48
2023-01-08T09:11:40.150Z,2.00
2023-01-08T09:16:41.747Z,2.28
2023-01-08T09:21:43.208Z,2.67
2023-01-08T09:26:44.673Z,2.22
2023-01-08T09:31:46.861Z,2.45
2023-01-08T09:36:48.365Z,2.22
2023-01-08T09:41:50.717Z,2.45
2023-01-08T09:46:54.700Z,3.03
2023-01-08T09:51:56.247Z,2.92
2023-01-08T09:56:59.266Z,2.90
2023-01-08T10:02:01.000Z,3.70
2023-01-08T10:07:06.811Z,4.70
2023-01-08T10:12:11.580Z,4.03
2023-01-08T10:17:17.518Z,5.13
2023-01-08T10:22:20.836Z,4.85
2023-01-08T10:27:23.417Z,4.60
2023-01-08T10:32:30.077Z,5.20
2023-01-08T10:37:32.964Z,5.13
2023-01-08T10:42:35.673Z,5.47
2023-01-08T10:47:37.346Z,6.88
2023-01-08T10:52:38.840Z,6.20
2023-01-08T10:57:41.349Z,6.43
2023-01-08T11:02:42.880Z,7.22
2023-01-08T11:07:50.293Z,7.10
2023-01-08T11:12:59.267Z,6.55
2023-01-08T11:18:16.747Z,6.80
2023-01-08T11:23:18.363Z,6.57
2023-01-08T11:28:25.910Z,6.07
2023-01-08T11:33:28.717Z,5.93
2023-01-08T11:38:30.237Z,7.72
2023-01-08T11:43:34.532Z,8.07
2023-01-08T11:48:36.082Z,8.88
2023-01-08T11:53:47.623Z,8.32
2023-01-08T11:59:09.309Z,9.00
2023-01-08T12:04:21.876Z,7.97
2023-01-08T12:09:32.579Z,7.97
2023-01-08T12:14:39.640Z,8.05
2023-01-08T12:19:59.893Z,8.20
2023-01-08T12:25:01.347Z,9.57
2023-01-08T12:30:32.440Z,7.90
2023-01-08T12:35:39.768Z,8.38
2023-01-08T12:40:51.181Z,10.65
2023-01-08T12:45:54.376Z,8.75
2023-01-08T12:51:04.912Z,9.30
2023-01-08T12:56:11.878Z,10.27
2023-01-08T13:01:29.481Z,10.07
2023-01-08T13:06:31.307Z,8.40
2023-01-08T13:11:34.836Z,9.38
2023-01-08T13:16:44.686Z,9.20
2023-01-08T13:21:51.543Z,9.68
2023-01-08T13:26:53.666Z,8.93
2023-01-08T13:31:55.216Z,8.35
2023-01-08T13:36:57.789Z,9.15
2023-01-08T13:42:00.575Z,9.88
2023-01-08T13:47:03.053Z,9.93
2023-01-08T13:52:05.455Z,10.30
2023-01-08T13:57:18.052Z,10.20
2023-01-08T14:02:33.279Z,9.63
2023-01-08T14:07:38.516Z,9.55
2023-01-08T14:12:40.314Z,9.95
2023-01-08T14:17:43.522Z,9.65
2023-01-08T14:22:45.015Z,10.07
2023-01-08T14:27:54.652Z,11.35
2023-01-08T14:32:57.269Z,9.90
2023-01-08T14:38:00.188Z,10.13
2023-01-08T14:43:03.687Z,11.63
2023-01-08T14:48:12.901Z,11.30
2023-01-08T14:53:25.880Z,10.40
2023-01-08T14:58:29.087Z,10.63
2023-01-08T15:03:37.736Z,10.05
2023-01-08T15:08:40.697Z,9.40
2023-01-08T15:13:42.202Z,11.90
2023-01-08T15:18:48.041Z,9.30
2023-01-08T15:23:51.598Z,9.57
2023-01-08T15:29:04.532Z,8.63
2023-01-08T15:34:08.006Z,9.38
2023-01-08T15:39:09.502Z,9.43
2023-01-08T15:44:15.376Z,7.88
2023-01-08T15:49:16.914Z,8.73
2023-01-08T15:54:19.429Z,7.57
2023-01-08T15:59:20.906Z,6.35
2023-01-08T16:04:23.058Z,7.13
2023-01-08T16:09:24.597Z,5.75
2023-01-08T16:14:26.126Z,6.47
2023-01-08T16:19:29.291Z,5.25
2023-01-08T16:24:30.758Z,6.05
2023-01-08T16:29:32.359Z,5.20
2023-01-08T16:34:33.927Z,4.93
2023-01-08T16:39:35.458Z,4.95
2023-01-08T16:44:37.103Z,3.28
2023-01-08T16:49:40.389Z,4.38
2023-01-08T16:54:43.207Z,4.47
2023-01-08T16:59:44.747Z,4.85
2023-01-08T17:04:46.621Z,4.65
2023-01-08T17:09:48.165Z,5.93
2023-01-08T17:14:50.311Z,4.32
2023-01-08T17:19:51.759Z,5.63
2023-01-08T17:24:53.329Z,4.72
2023-01-08T17:29:54.773Z,4.85
2023-01-08T17:34:56.385Z,5.13
2023-01-08T17:39:58.003Z,5.82
2023-01-08T17:45:03.360Z,4.85
2023-01-08T17:50:06.020Z,4.97
2023-01-08T17:55:07.805Z,4.45
2023-01-08T18:00:09.683Z,4.07
2023-01-08T18:05:11.595Z,4.20
2023-01-08T18:10:13.176Z,5.88
2023-01-08T18:15:16.679Z,5.03
2023-01-08T18:20:18.419Z,4.63
2023-01-08T18:25:20.163Z,4.88
2023-01-08T18:30:21.850Z,4.03
2023-01-08T18:35:23.328Z,4.47
2023-01-08T18:40:25.005Z,3.92
2023-01-08T18:45:26.503Z,3.70
2023-01-08T18:50:28.079Z,3.92
2023-01-08T18:55:29.746Z,4.07
2023-01-08T19:00:31.536Z,4.30
2023-01-08T19:05:33.187Z,3.58
2023-01-08T19:10:38.744Z,4.32
2023-01-08T19:15:40.300Z,4.45
2023-01-08T19:20:43.491Z,4.40
2023-01-08T19:25:45.113Z,3.70
2023-01-08T19:30:53.700Z,4.47
2023-01-08T19:35:55.183Z,2.90
2023-01-08T19:40:57.345Z,4.05
2023-01-08T19:46:08.217Z,3.45
2023-01-08T19:51:10.360Z,3.53
2023-01-08T19:56:13.121Z,3.50
2023-01-08T20:01:14.737Z,3.67
2023-01-08T20:06:19.718Z,3.15
2023-01-08T20:11:22.416Z,3.10
2023-01-08T20:16:24.603Z,3.53
2023-01-08T20:21:26.266Z,2.67
2023-01-08T20:26:28.589Z,2.55
2023-01-08T20:31:31.273Z,2.58
2023-01-08T20:36:33.585Z,2.60
2023-01-08T20:41:35.098Z,2.60
2023-01-08T20:46:37.970Z,2.45
2023-01-08T20:51:42.370Z,2.17
2023-01-08T20:56:45.672Z,2.15
2023-01-08T21:01:47.167Z,2.17
2023-01-08T21:06:48.830Z,2.28
2023-01-08T21:11:50.907Z,2.45
2023-01-08T21:16:52.428Z,2.22
2023-01-08T21:21:53.913Z,2.85
2023-01-08T21:26:55.469Z,2.20
2023-01-08T21:31:57.504Z,2.75
2023-01-08T21:37:02.382Z,2.53
2023-01-08T21:42:22.596Z,2.65
2023-01-08T21:47:24.070Z,2.70
2023-01-08T21:52:43.761Z,2.15
2023-01-08T21:57:45.374Z,2.70
2023-01-08T22:02:47.044Z,2.92
2023-01-08T22:07:48.843Z,3.25
2023-01-08T22:12:50.318Z,3.65
2023-01-08T22:17:51.794Z,3.20
2023-01-08T22:22:53.297Z,2.75
2023-01-08T22:27:56.262Z,3.60
2023-01-08T22:32:57.723Z,3.55
2023-01-08T22:37:59.362Z,3.30
2023-01-08T22:43:00.879Z,3.30
2023-01-08T22:48:02.458Z,3.15
2023-01-08T22:53:03.983Z,3.55
2023-01-08T22:58:05.534Z,3.17
2023-01-08T23:03:07.037Z,3.33
2023-01-08T23:08:08.858Z,3.33
2023-01-08T23:13:10.371Z,3.88
2023-01-08T23:18:11.876Z,3.08
2023-01-08T23:23:13.401Z,2.47
2023-01-08T23:28:14.873Z,2.55
2023-01-08T23:33:16.376Z,2.90
2023-01-08T23:38:17.943Z,2.53
2023-01-08T23:43:19.535Z,2.30
2023-01-08T23:48:21.157Z,2.58
2023-01-08T23:53:23.068Z,2.50
2023-01-08T23:58:24.980Z,1.85
